createdAt,value
2017-09-13T00:01:11.437Z,18.43
2017-09-13T00:03:37.653Z,18.39
2017-09-13T00:06:03.887Z,18.25
2017-09-13T00:08:30.117Z,18.26
2017-09-13T00:10:56.347Z,18.37
2017-09-13T00:13:22.587Z,18.45
2017-09-13T00:15:48.818Z,18.40
2017-09-13T00:18:15.023Z,18.43
2017-09-13T00:20:41.262Z,18.25
2017-09-13T00:23:07.490Z,18.32
2017-09-13T00:25:33.706Z,18.45
2017-09-13T00:27:59.941Z,18.48
2017-09-13T00:30:26.185Z,18.60
2017-09-13T00:32:52.408Z,18.68
2017-09-13T00:35:18.686Z,18.66
2017-09-13T00:37:44.876Z,18.45
2017-09-13T00:40:11.120Z,18.58
2017-09-13T00:42:37.352Z,18.66
2017-09-13T00:45:03.540Z,18.73
2017-09-13T00:47:29.772Z,18.77
2017-09-13T00:49:56.025Z,18.75
2017-09-13T00:52:22.250Z,18.78
2017-09-13T00:54:48.461Z,18.82
2017-09-13T00:57:14.708Z,18.75
2017-09-13T00:59:40.924Z,18.30
2017-09-13T01:02:07.151Z,18.23
2017-09-13T01:04:33.383Z,18.20
2017-09-13T01:06:59.630Z,18.12
2017-09-13T01:09:25.850Z,18.03
2017-09-13T01:11:52.088Z,17.97
2017-09-13T01:14:18.318Z,17.92
2017-09-13T01:16:44.546Z,17.94
2017-09-13T01:19:10.773Z,17.88
2017-09-13T01:21:36.989Z,18.03
2017-09-13T01:24:03.236Z,18.08
2017-09-13T01:26:29.455Z,17.90
2017-09-13T01:28:55.692Z,17.94
2017-09-13T01:31:21.925Z,17.92
2017-09-13T01:33:48.158Z,17.91
2017-09-13T01:36:14.379Z,17.92
2017-09-13T01:38:40.613Z,18.03
2017-09-13T01:41:06.844Z,18.02
2017-09-13T01:43:33.066Z,18.06
2017-09-13T01:45:59.293Z,18.09
2017-09-13T01:48:25.533Z,17.94
2017-09-13T01:50:51.763Z,17.81
2017-09-13T01:53:17.979Z,17.71
2017-09-13T01:55:44.204Z,17.60
2017-09-13T01:58:10.434Z,17.62
2017-09-13T02:00:36.676Z,17.71
2017-09-13T02:03:02.901Z,17.78
2017-09-13T02:05:29.142Z,17.89
2017-09-13T02:07:55.383Z,17.93
2017-09-13T02:10:21.596Z,17.95
2017-09-13T02:12:47.836Z,17.92
2017-09-13T02:15:14.064Z,17.88
2017-09-13T02:17:40.287Z,17.85
2017-09-13T02:20:06.517Z,17.81
2017-09-13T02:22:32.737Z,17.77
2017-09-13T02:24:58.977Z,17.87
2017-09-13T02:27:25.210Z,17.97
2017-09-13T02:29:51.430Z,17.95
2017-09-13T02:32:17.666Z,17.95
2017-09-13T02:34:43.882Z,18.07
2017-09-13T02:37:10.116Z,18.12
2017-09-13T02:39:36.342Z,17.99
2017-09-13T02:42:02.590Z,17.89
2017-09-13T02:44:28.809Z,17.86
2017-09-13T02:46:55.051Z,17.87
2017-09-13T02:49:21.279Z,17.84
2017-09-13T02:51:47.508Z,17.76
2017-09-13T02:54:13.734Z,17.53
2017-09-13T02:56:39.962Z,17.39
2017-09-13T02:59:06.187Z,17.38
2017-09-13T03:01:32.416Z,17.40
2017-09-13T03:03:58.625Z,17.38
2017-09-13T03:06:24.881Z,17.33
2017-09-13T03:08:51.125Z,17.31
2017-09-13T03:11:17.344Z,17.11
2017-09-13T03:13:43.582Z,17.13
2017-09-13T03:16:09.790Z,17.10
2017-09-13T03:18:36.034Z,17.16
2017-09-13T03:21:02.253Z,17.19
2017-09-13T03:23:28.494Z,17.27
2017-09-13T03:25:54.714Z,17.33
2017-09-13T03:28:20.941Z,17.41
2017-09-13T03:30:47.182Z,17.43
2017-09-13T03:33:13.421Z,17.47
2017-09-13T03:35:39.644Z,17.55
2017-09-13T03:38:05.876Z,17.55
2017-09-13T03:40:32.088Z,17.49
2017-09-13T03:42:58.329Z,17.47
2017-09-13T03:45:24.560Z,17.48
2017-09-13T03:47:50.780Z,17.53
2017-09-13T03:50:17.015Z,17.60
2017-09-13T03:52:43.273Z,17.68
2017-09-13T03:55:09.478Z,17.72
2017-09-13T03:57:35.707Z,17.64
2017-09-13T04:00:01.928Z,17.50
2017-09-13T04:02:28.163Z,17.54
2017-09-13T04:04:54.389Z,17.39
2017-09-13T04:07:20.632Z,17.20
2017-09-13T04:09:46.843Z,17.09
2017-09-13T04:12:13.102Z,16.92
2017-09-13T04:14:39.313Z,16.86
2017-09-13T04:17:05.538Z,17.01
2017-09-13T04:19:31.773Z,17.26
2017-09-13T04:21:57.994Z,17.43
2017-09-13T04:24:24.223Z,17.49
2017-09-13T04:26:50.462Z,17.60
2017-09-13T04:29:16.681Z,17.82
2017-09-13T04:31:42.912Z,18.04
2017-09-13T04:34:09.154Z,18.12
2017-09-13T04:36:35.381Z,18.30
2017-09-13T04:39:01.614Z,18.49
2017-09-13T04:41:27.858Z,18.74
2017-09-13T04:43:54.068Z,18.89
2017-09-13T04:46:20.299Z,19.09
2017-09-13T04:48:46.545Z,19.42
2017-09-13T04:51:12.766Z,20.30
2017-09-13T04:53:38.974Z,21.53
2017-09-13T04:56:05.209Z,21.80
2017-09-13T04:58:31.434Z,21.72
2017-09-13T05:00:57.671Z,22.23
2017-09-13T05:03:23.890Z,23.11
2017-09-13T05:05:50.181Z,24.00
2017-09-13T05:08:16.364Z,24.43
2017-09-13T05:10:42.600Z,24.35
2017-09-13T05:13:08.823Z,23.79
2017-09-13T05:15:35.051Z,23.61
2017-09-13T05:18:01.280Z,23.70
2017-09-13T05:20:27.501Z,23.60
2017-09-13T05:22:53.727Z,23.38
2017-09-13T05:25:19.969Z,23.67
2017-09-13T05:27:46.250Z,24.55
2017-09-13T05:30:12.419Z,25.06
2017-09-13T05:32:38.646Z,25.36
2017-09-13T05:35:04.908Z,25.86
2017-09-13T05:37:31.128Z,26.12
2017-09-13T05:39:57.367Z,26.19
2017-09-13T05:42:23.585Z,25.40
2017-09-13T05:44:49.818Z,24.83
2017-09-13T05:47:16.031Z,25.00
2017-09-13T05:49:42.270Z,26.40
2017-09-13T05:52:08.515Z,26.91
2017-09-13T05:54:34.717Z,27.85
2017-09-13T05:57:00.965Z,28.64
2017-09-13T05:59:27.190Z,28.42
2017-09-13T06:01:53.428Z,27.79
2017-09-13T06:04:19.656Z,27.98
2017-09-13T06:06:45.888Z,28.06
2017-09-13T06:09:12.094Z,28.28
2017-09-13T06:11:38.320Z,29.21
2017-09-13T06:14:04.582Z,28.78
2017-09-13T06:16:30.802Z,27.54
2017-09-13T06:18:57.019Z,28.43
2017-09-13T06:21:23.237Z,29.60
2017-09-13T06:23:49.474Z,30.11
2017-09-13T06:26:15.721Z,29.38
2017-09-13T06:28:41.953Z,28.96
2017-09-13T06:31:08.170Z,28.72
2017-09-13T06:33:34.408Z,28.41
2017-09-13T06:36:00.643Z,28.11
2017-09-13T06:38:26.790Z,28.05
2017-09-13T06:40:52.994Z,29.35
2017-09-13T06:43:19.219Z,30.89
2017-09-13T06:45:45.461Z,30.37
2017-09-13T06:48:11.632Z,29.70
2017-09-13T06:50:37.792Z,29.35
2017-09-13T06:53:04.149Z,28.89
2017-09-13T06:55:30.375Z,28.58
2017-09-13T06:57:56.610Z,28.03
2017-09-13T07:00:22.824Z,27.80
2017-09-13T07:02:49.068Z,28.02
2017-09-13T07:05:15.278Z,29.10
2017-09-13T07:07:41.513Z,30.37
2017-09-13T07:10:07.757Z,30.92
2017-09-13T07:12:40.376Z,31.45
2017-09-13T07:15:06.545Z,32.12
2017-09-13T07:17:32.794Z,32.32
2017-09-13T07:19:58.936Z,32.24
2017-09-13T07:22:25.144Z,31.64
2017-09-13T07:24:51.288Z,32.11
2017-09-13T07:27:17.444Z,31.86
2017-09-13T07:29:43.595Z,32.27
2017-09-13T07:32:09.739Z,32.70
2017-09-13T07:34:35.920Z,33.42
2017-09-13T07:37:02.087Z,33.04
2017-09-13T07:39:28.245Z,33.02
2017-09-13T07:41:54.417Z,33.14
2017-09-13T07:44:20.584Z,32.70
2017-09-13T07:46:46.722Z,32.45
2017-09-13T07:49:12.888Z,32.27
2017-09-13T07:51:39.054Z,32.12
2017-09-13T07:54:05.218Z,32.33
2017-09-13T07:56:31.380Z,32.72
2017-09-13T07:58:57.539Z,32.52
2017-09-13T08:01:23.700Z,31.69
2017-09-13T08:03:51.120Z,29.95
2017-09-13T08:06:17.284Z,28.53
2017-09-13T08:08:43.446Z,28.01
2017-09-13T08:11:09.772Z,28.42
2017-09-13T08:13:35.925Z,30.08
2017-09-13T08:16:02.074Z,30.89
2017-09-13T08:18:28.220Z,31.50
2017-09-13T08:20:54.374Z,30.84
2017-09-13T08:23:20.580Z,30.75
2017-09-13T08:25:46.809Z,31.08
2017-09-13T08:28:13.048Z,30.04
2017-09-13T08:30:39.264Z,29.35
2017-09-13T08:33:05.425Z,29.25
2017-09-13T08:35:31.616Z,30.22
2017-09-13T08:37:57.860Z,30.26
2017-09-13T08:40:24.094Z,30.12
2017-09-13T08:42:50.316Z,30.80
2017-09-13T08:45:16.557Z,31.18
2017-09-13T08:47:42.768Z,30.88
2017-09-13T08:50:09.019Z,31.02
2017-09-13T08:52:35.236Z,31.08
2017-09-13T08:55:01.385Z,31.22
2017-09-13T08:57:27.598Z,31.61
2017-09-13T08:59:53.829Z,32.52
2017-09-13T09:02:20.057Z,32.66
2017-09-13T09:04:46.192Z,32.69
2017-09-13T09:07:12.413Z,32.98
2017-09-13T09:09:38.637Z,32.54
2017-09-13T09:12:04.813Z,31.66
2017-09-13T09:14:31.007Z,31.52
2017-09-13T09:16:57.229Z,31.86
2017-09-13T09:19:23.455Z,32.39
2017-09-13T09:21:49.693Z,32.60
2017-09-13T09:24:15.921Z,32.22
2017-09-13T09:26:42.137Z,32.65
2017-09-13T09:29:08.367Z,32.81
2017-09-13T09:31:34.598Z,33.02
2017-09-13T09:34:00.845Z,32.85
2017-09-13T09:36:27.051Z,33.09
2017-09-13T09:38:53.295Z,32.69
2017-09-13T09:41:19.517Z,32.83
2017-09-13T09:43:45.749Z,32.45
2017-09-13T09:46:11.986Z,32.28
2017-09-13T09:48:38.203Z,32.98
2017-09-13T09:51:04.456Z,32.32
2017-09-13T09:53:30.663Z,32.59
2017-09-13T09:55:56.911Z,33.13
2017-09-13T09:58:23.122Z,32.79
2017-09-13T10:00:49.353Z,32.91
2017-09-13T10:03:15.592Z,33.00
2017-09-13T10:05:41.821Z,33.01
2017-09-13T10:08:08.036Z,32.77
2017-09-13T10:10:34.271Z,32.51
2017-09-13T10:13:00.501Z,32.87
2017-09-13T10:15:26.742Z,30.52
2017-09-13T10:17:52.959Z,29.88
2017-09-13T10:20:19.193Z,30.68
2017-09-13T10:22:45.423Z,31.85
2017-09-13T10:25:11.647Z,31.89
2017-09-13T10:27:37.884Z,31.61
2017-09-13T10:30:04.105Z,31.47
2017-09-13T10:32:30.342Z,30.10
2017-09-13T10:34:56.573Z,29.59
2017-09-13T10:37:22.805Z,29.10
2017-09-13T10:39:49.022Z,28.56
2017-09-13T10:42:15.275Z,28.36
2017-09-13T10:44:41.496Z,28.98
2017-09-13T10:47:07.713Z,30.44
2017-09-13T10:49:33.956Z,29.61
2017-09-13T10:52:00.178Z,29.29
2017-09-13T10:54:26.408Z,29.39
2017-09-13T10:56:52.627Z,30.84
2017-09-13T10:59:18.875Z,30.90
2017-09-13T11:01:45.042Z,31.81
2017-09-13T11:04:11.228Z,32.38
2017-09-13T11:06:37.460Z,32.98
2017-09-13T11:09:03.681Z,32.22
2017-09-13T11:11:29.923Z,32.30
2017-09-13T11:13:56.145Z,31.84
2017-09-13T11:16:22.381Z,32.31
2017-09-13T11:18:48.614Z,32.52
2017-09-13T11:21:14.837Z,31.63
2017-09-13T11:23:41.070Z,31.67
2017-09-13T11:26:07.305Z,32.72
2017-09-13T11:28:33.543Z,32.90
2017-09-13T11:31:01.232Z,32.66
2017-09-13T11:33:27.524Z,32.69
2017-09-13T11:35:53.751Z,33.36
2017-09-13T11:38:19.974Z,32.10
2017-09-13T11:40:46.206Z,32.42
2017-09-13T11:43:12.374Z,32.79
2017-09-13T11:45:38.554Z,33.37
2017-09-13T11:48:04.805Z,33.39
2017-09-13T11:50:30.968Z,33.62
2017-09-13T11:52:57.167Z,33.52
2017-09-13T11:55:23.396Z,32.55
2017-09-13T11:57:49.611Z,32.01
2017-09-13T12:00:15.860Z,31.68
2017-09-13T12:02:42.072Z,32.19
2017-09-13T12:05:08.302Z,31.95
2017-09-13T12:07:34.539Z,31.20
2017-09-13T12:10:00.778Z,32.27
2017-09-13T12:12:26.992Z,32.61
2017-09-13T12:14:53.254Z,32.70
2017-09-13T12:17:19.467Z,33.28
2017-09-13T12:19:45.696Z,33.68
2017-09-13T12:22:11.951Z,33.70
2017-09-13T12:24:38.146Z,33.35
2017-09-13T12:27:04.388Z,33.34
2017-09-13T12:29:30.654Z,33.23
2017-09-13T12:31:56.868Z,33.92
2017-09-13T12:34:23.051Z,33.71
2017-09-13T12:36:49.301Z,32.67
2017-09-13T12:39:15.534Z,32.03
2017-09-13T12:41:41.751Z,32.01
2017-09-13T12:44:08.003Z,32.99
2017-09-13T12:46:34.214Z,33.63
2017-09-13T12:49:00.496Z,34.36
2017-09-13T12:51:26.686Z,34.93
2017-09-13T12:53:52.891Z,35.15
2017-09-13T12:56:19.163Z,34.92
2017-09-13T12:58:45.373Z,34.32
2017-09-13T13:01:11.611Z,34.03
2017-09-13T13:03:37.831Z,33.60
2017-09-13T13:06:04.063Z,32.83
2017-09-13T13:08:30.250Z,32.85
2017-09-13T13:10:56.519Z,33.67
2017-09-13T13:13:22.746Z,33.24
2017-09-13T13:15:48.984Z,33.86
2017-09-13T13:18:15.215Z,33.67
2017-09-13T13:20:41.412Z,33.76
2017-09-13T13:23:07.637Z,33.98
2017-09-13T13:25:33.896Z,33.14
2017-09-13T13:28:00.123Z,32.32
2017-09-13T13:30:26.374Z,33.12
2017-09-13T13:32:52.608Z,33.30
2017-09-13T13:35:18.800Z,33.77
2017-09-13T13:37:45.025Z,33.30
2017-09-13T13:40:11.255Z,32.93
2017-09-13T13:42:37.491Z,32.33
2017-09-13T13:45:03.733Z,31.55
2017-09-13T13:47:29.957Z,30.96
2017-09-13T13:49:56.202Z,31.49
2017-09-13T13:52:22.423Z,32.07
2017-09-13T13:54:48.656Z,33.11
2017-09-13T13:57:14.878Z,32.80
2017-09-13T13:59:41.105Z,32.30
2017-09-13T14:02:07.355Z,32.43
2017-09-13T14:04:33.581Z,33.16
2017-09-13T14:06:59.789Z,33.31
2017-09-13T14:09:26.019Z,33.73
2017-09-13T14:11:52.265Z,35.00
2017-09-13T14:14:18.477Z,34.54
2017-09-13T14:16:44.703Z,33.64
2017-09-13T14:19:10.952Z,32.54
2017-09-13T14:21:37.171Z,31.40
2017-09-13T14:24:03.419Z,31.44
2017-09-13T14:26:29.633Z,32.13
2017-09-13T14:28:55.880Z,32.75
2017-09-13T14:31:22.130Z,33.51
2017-09-13T14:33:48.370Z,33.35
2017-09-13T14:36:15.071Z,33.21
2017-09-13T14:38:41.294Z,32.48
2017-09-13T14:41:07.517Z,32.30
2017-09-13T14:43:33.762Z,31.95
2017-09-13T14:45:59.988Z,31.50
2017-09-13T14:48:26.211Z,31.63
2017-09-13T14:50:52.446Z,31.30
2017-09-13T14:53:18.712Z,31.45
2017-09-13T14:55:44.891Z,31.61
2017-09-13T14:58:11.123Z,31.25
2017-09-13T15:00:37.361Z,30.82
2017-09-13T15:03:03.582Z,31.03
2017-09-13T15:05:29.829Z,31.04
2017-09-13T15:07:56.063Z,31.29
2017-09-13T15:10:22.273Z,31.08
2017-09-13T15:12:48.504Z,30.60
2017-09-13T15:15:14.751Z,30.38
2017-09-13T15:17:40.976Z,30.29
2017-09-13T15:20:07.211Z,30.45
2017-09-13T15:22:33.425Z,30.06
2017-09-13T15:24:59.723Z,29.95
2017-09-13T15:27:25.996Z,30.00
2017-09-13T15:29:52.221Z,30.02
2017-09-13T15:32:18.446Z,29.94
2017-09-13T15:34:44.686Z,29.94
2017-09-13T15:37:14.400Z,29.64
2017-09-13T15:39:41.725Z,29.26
2017-09-13T15:42:07.980Z,28.82
2017-09-13T15:44:34.201Z,28.52
2017-09-13T15:47:00.413Z,28.33
2017-09-13T15:49:26.650Z,27.95
2017-09-13T15:51:52.890Z,27.75
2017-09-13T15:54:19.114Z,27.60
2017-09-13T15:56:45.343Z,27.41
2017-09-13T15:59:11.579Z,27.22
2017-09-13T16:01:37.823Z,27.20
2017-09-13T16:04:04.030Z,27.00
2017-09-13T16:06:30.181Z,26.87
2017-09-13T16:08:56.400Z,26.74
2017-09-13T16:11:22.661Z,26.65
2017-09-13T16:13:48.849Z,26.54
2017-09-13T16:16:15.110Z,26.49
2017-09-13T16:18:41.374Z,26.34
2017-09-13T16:21:07.649Z,26.18
2017-09-13T16:23:33.872Z,26.06
2017-09-13T16:26:00.098Z,25.89
2017-09-13T16:28:26.334Z,25.92
2017-09-13T16:30:52.566Z,25.90
2017-09-13T16:33:18.763Z,25.82
2017-09-13T16:35:45.017Z,25.74
2017-09-13T16:38:11.259Z,25.60
2017-09-13T16:40:37.510Z,25.53
2017-09-13T16:43:03.737Z,25.41
2017-09-13T16:45:29.893Z,25.28
2017-09-13T16:47:56.109Z,25.18
2017-09-13T16:50:22.264Z,25.21
2017-09-13T16:52:48.428Z,25.11
2017-09-13T16:55:14.587Z,25.04
2017-09-13T16:57:40.779Z,24.93
2017-09-13T17:00:06.943Z,24.88
2017-09-13T17:02:33.113Z,24.88
2017-09-13T17:04:59.317Z,24.79
2017-09-13T17:07:25.470Z,24.76
2017-09-13T17:09:51.639Z,24.72
2017-09-13T17:12:17.789Z,24.58
2017-09-13T17:14:43.995Z,24.44
2017-09-13T17:17:10.242Z,24.39
2017-09-13T17:19:36.444Z,24.36
2017-09-13T17:22:02.696Z,24.34
2017-09-13T17:24:28.994Z,24.26
2017-09-13T17:26:55.261Z,24.20
2017-09-13T17:29:21.466Z,24.07
2017-09-13T17:31:47.692Z,24.03
2017-09-13T17:34:13.924Z,24.05
2017-09-13T17:36:40.169Z,24.00
2017-09-13T17:39:06.416Z,23.91
2017-09-13T17:41:32.607Z,23.93
2017-09-13T17:43:58.858Z,23.84
2017-09-13T17:46:25.083Z,23.81
2017-09-13T17:48:51.329Z,23.69
2017-09-13T17:51:17.558Z,23.60
2017-09-13T17:53:43.771Z,23.49
2017-09-13T17:56:09.982Z,23.39
2017-09-13T17:58:36.149Z,23.39
2017-09-13T18:01:02.340Z,23.38
2017-09-13T18:03:28.592Z,23.25
2017-09-13T18:05:54.795Z,23.18
2017-09-13T18:08:21.055Z,23.17
2017-09-13T18:10:47.283Z,23.17
2017-09-13T18:13:13.514Z,23.10
2017-09-13T18:15:39.735Z,23.01
2017-09-13T18:18:05.954Z,23.01
2017-09-13T18:20:32.191Z,22.85
2017-09-13T18:22:58.427Z,22.87
2017-09-13T18:25:24.641Z,22.82
2017-09-13T18:27:50.881Z,22.77
2017-09-13T18:30:17.080Z,22.71
2017-09-13T18:32:43.328Z,22.60
2017-09-13T18:35:09.549Z,22.56
2017-09-13T18:37:35.795Z,22.48
2017-09-13T18:40:02.030Z,22.30
2017-09-13T18:42:28.243Z,22.28
2017-09-13T18:44:54.502Z,22.27
2017-09-13T18:47:20.741Z,22.17
2017-09-13T18:49:46.948Z,21.99
2017-09-13T18:52:13.180Z,21.78
2017-09-13T18:54:39.395Z,21.79
2017-09-13T18:57:05.633Z,21.73
2017-09-13T18:59:31.846Z,21.62
2017-09-13T19:01:58.098Z,21.64
2017-09-13T19:04:24.281Z,21.62
2017-09-13T19:06:50.540Z,21.48
2017-09-13T19:09:16.804Z,21.51
2017-09-13T19:11:43.022Z,21.50
2017-09-13T19:14:09.195Z,21.45
2017-09-13T19:16:35.483Z,21.36
2017-09-13T19:19:01.709Z,21.27
2017-09-13T19:21:27.923Z,21.18
2017-09-13T19:23:54.149Z,21.14
2017-09-13T19:26:20.391Z,21.03
2017-09-13T19:28:46.771Z,20.71
2017-09-13T19:31:12.972Z,20.64
2017-09-13T19:33:39.176Z,20.57
2017-09-13T19:36:05.395Z,20.56
2017-09-13T19:38:31.663Z,20.50
2017-09-13T19:40:57.845Z,20.62
2017-09-13T19:43:24.112Z,20.53
2017-09-13T19:45:50.325Z,20.55
2017-09-13T19:48:16.577Z,20.54
2017-09-13T19:50:42.814Z,20.52
2017-09-13T19:53:09.009Z,20.59
2017-09-13T19:55:35.244Z,20.52
2017-09-13T19:58:01.486Z,20.42
2017-09-13T20:00:27.707Z,20.39
2017-09-13T20:02:53.936Z,20.34
2017-09-13T20:05:20.166Z,20.36
2017-09-13T20:07:46.392Z,20.28
2017-09-13T20:10:12.611Z,20.22
2017-09-13T20:12:38.844Z,20.22
2017-09-13T20:15:05.077Z,20.14
2017-09-13T20:17:31.311Z,19.85
2017-09-13T20:19:57.546Z,19.70
2017-09-13T20:22:23.800Z,19.54
2017-09-13T20:24:49.986Z,19.48
2017-09-13T20:27:16.244Z,19.47
2017-09-13T20:29:42.556Z,19.35
2017-09-13T20:32:08.780Z,19.28
2017-09-13T20:34:35.021Z,19.06
2017-09-13T20:37:01.258Z,19.06
2017-09-13T20:39:27.472Z,19.04
2017-09-13T20:41:53.726Z,18.90
2017-09-13T20:44:22.943Z,18.88
2017-09-13T20:46:49.148Z,18.80
2017-09-13T20:49:15.385Z,18.63
2017-09-13T20:51:41.656Z,18.69
2017-09-13T20:54:07.933Z,18.80
2017-09-13T20:56:34.218Z,18.91
2017-09-13T20:59:00.501Z,18.97
2017-09-13T21:01:26.709Z,19.00
2017-09-13T21:03:52.959Z,18.94
2017-09-13T21:06:19.181Z,18.83
2017-09-13T21:08:45.338Z,18.72
2017-09-13T21:11:11.534Z,18.57
2017-09-13T21:13:37.757Z,18.32
2017-09-13T21:16:04.014Z,18.09
2017-09-13T21:18:30.219Z,17.96
2017-09-13T21:20:56.463Z,17.86
2017-09-13T21:23:22.676Z,17.79
2017-09-13T21:25:48.904Z,17.73
2017-09-13T21:28:15.138Z,17.79
2017-09-13T21:30:41.377Z,17.73
2017-09-13T21:33:07.614Z,17.59
2017-09-13T21:35:33.831Z,17.58
2017-09-13T21:38:00.088Z,17.56
2017-09-13T21:40:26.386Z,17.44
2017-09-13T21:42:52.628Z,17.49
2017-09-13T21:45:18.848Z,17.43
2017-09-13T21:47:45.084Z,17.36
2017-09-13T21:50:11.320Z,17.35
2017-09-13T21:52:37.529Z,17.27
2017-09-13T21:55:03.768Z,17.30
2017-09-13T21:57:30.009Z,17.25
2017-09-13T21:59:56.240Z,17.21
2017-09-13T22:02:22.473Z,17.12
2017-09-13T22:04:48.693Z,17.08
2017-09-13T22:07:14.928Z,17.12
2017-09-13T22:09:41.142Z,17.11
2017-09-13T22:12:07.389Z,17.06
2017-09-13T22:14:33.604Z,17.09
2017-09-13T22:16:59.846Z,17.13
2017-09-13T22:19:26.079Z,17.09
2017-09-13T22:21:52.304Z,17.03
2017-09-13T22:24:18.540Z,17.00
2017-09-13T22:26:44.829Z,16.97
2017-09-13T22:29:11.100Z,16.96
2017-09-13T22:31:37.314Z,17.02
2017-09-13T22:34:03.553Z,17.02
2017-09-13T22:36:29.786Z,16.86
2017-09-13T22:38:56.039Z,16.77
2017-09-13T22:41:22.240Z,16.75
2017-09-13T22:43:48.468Z,16.66
2017-09-13T22:46:14.699Z,16.66
2017-09-13T22:48:40.930Z,16.67
2017-09-13T22:51:07.157Z,16.76
2017-09-13T22:53:33.405Z,16.79
2017-09-13T22:55:59.625Z,16.81
2017-09-13T22:58:25.854Z,16.64
2017-09-13T23:00:52.083Z,16.47
2017-09-13T23:03:18.295Z,16.36
2017-09-13T23:05:45.538Z,16.21
2017-09-13T23:08:11.802Z,16.21
2017-09-13T23:10:38.029Z,16.12
2017-09-13T23:13:04.247Z,16.11
2017-09-13T23:15:30.515Z,16.12
2017-09-13T23:17:56.707Z,16.02
2017-09-13T23:20:22.939Z,15.89
2017-09-13T23:22:49.162Z,15.88
2017-09-13T23:25:15.403Z,15.83
2017-09-13T23:27:41.633Z,15.86
2017-09-13T23:30:07.850Z,15.80
2017-09-13T23:32:34.084Z,15.77
2017-09-13T23:35:00.320Z,15.67
2017-09-13T23:37:26.552Z,15.58
2017-09-13T23:39:52.778Z,15.57
2017-09-13T23:42:19.006Z,15.64
2017-09-13T23:44:45.227Z,15.76
2017-09-13T23:47:11.474Z,15.93
2017-09-13T23:49:37.695Z,15.98
2017-09-13T23:52:03.911Z,16.00
2017-09-13T23:54:30.155Z,15.83
2017-09-13T23:56:56.386Z,15.70
2017-09-13T23:59:22.613Z,15.54
